createdAt,value
2019-03-19T00:00:25.767Z,0.00
2019-03-19T00:01:25.725Z,0.00
2019-03-19T00:02:25.718Z,0.00
2019-03-19T00:03:25.712Z,0.00
2019-03-19T00:04:25.707Z,0.00
2019-03-19T00:05:25.737Z,0.00
2019-03-19T00:06:25.693Z,0.00
2019-03-19T00:07:25.687Z,0.00
2019-03-19T00:08:25.681Z,0.00
2019-03-19T00:09:25.672Z,0.00
2019-03-19T00:10:25.701Z,0.00
2019-03-19T00:11:25.658Z,0.00
2019-03-19T00:12:25.655Z,0.00
2019-03-19T00:13:25.647Z,0.00
2019-03-19T00:14:25.675Z,0.00
2019-03-19T00:15:25.637Z,0.00
2019-03-19T00:16:25.630Z,0.00
2019-03-19T00:17:25.655Z,0.00
2019-03-19T00:18:25.616Z,0.00
2019-03-19T00:19:25.607Z,0.00
2019-03-19T00:20:25.638Z,0.00
2019-03-19T00:21:25.595Z,0.00
2019-03-19T00:22:25.894Z,0.00
2019-03-19T00:23:25.580Z,0.00
2019-03-19T00:24:25.578Z,0.00
2019-03-19T00:25:29.870Z,0.00
2019-03-19T00:26:25.565Z,0.00
2019-03-19T00:27:25.554Z,0.00
2019-03-19T00:28:25.551Z,0.00
2019-03-19T00:29:25.545Z,0.00
2019-03-19T00:30:25.570Z,0.00
2019-03-19T00:31:25.536Z,0.00
2019-03-19T00:32:25.522Z,0.00
2019-03-19T00:33:25.517Z,0.00
2019-03-19T00:34:25.511Z,0.00
2019-03-19T00:35:25.538Z,0.00
2019-03-19T00:36:25.499Z,0.00
2019-03-19T00:37:25.490Z,0.00
2019-03-19T00:38:25.484Z,0.00
2019-03-19T00:39:25.483Z,0.00
2019-03-19T00:40:25.505Z,0.00
2019-03-19T00:41:25.462Z,0.00
2019-03-19T00:42:25.461Z,0.00
2019-03-19T00:43:25.454Z,0.00
2019-03-19T00:44:25.449Z,0.00
2019-03-19T00:45:25.476Z,0.00
2019-03-19T00:46:25.435Z,0.00
2019-03-19T00:47:25.428Z,0.00
2019-03-19T00:48:25.421Z,0.00
2019-03-19T00:49:25.415Z,0.00
2019-03-19T00:50:25.444Z,0.00
2019-03-19T00:51:25.492Z,0.00
2019-03-19T00:52:25.430Z,0.00
2019-03-19T00:53:25.387Z,0.00
2019-03-19T00:54:25.387Z,0.00
2019-03-19T00:55:25.372Z,0.00
2019-03-19T00:56:25.405Z,0.00
2019-03-19T00:57:25.361Z,0.00
2019-03-19T00:58:25.357Z,0.00
2019-03-19T00:59:25.348Z,0.00
2019-03-19T01:00:25.378Z,0.00
2019-03-19T01:01:25.338Z,0.00
2019-03-19T01:02:25.332Z,0.00
2019-03-19T01:03:25.325Z,0.00
2019-03-19T01:04:25.327Z,0.00
2019-03-19T01:05:25.346Z,0.00
2019-03-19T01:06:25.307Z,0.00
2019-03-19T01:07:25.297Z,0.00
2019-03-19T01:08:25.295Z,0.00
2019-03-19T01:09:25.285Z,0.00
2019-03-19T01:10:25.317Z,0.00
2019-03-19T01:11:25.315Z,0.00
2019-03-19T01:12:25.268Z,0.00
2019-03-19T01:13:25.259Z,0.00
2019-03-19T01:14:25.258Z,0.00
2019-03-19T01:15:25.244Z,0.00
2019-03-19T01:16:25.276Z,0.00
2019-03-19T01:17:25.234Z,0.00
2019-03-19T01:18:25.230Z,0.00
2019-03-19T01:19:25.220Z,0.00
2019-03-19T01:20:25.218Z,0.00
2019-03-19T01:21:25.242Z,0.00
2019-03-19T01:22:25.202Z,0.00
2019-03-19T01:23:25.192Z,0.00
2019-03-19T01:24:25.210Z,0.00
2019-03-19T01:25:25.180Z,0.00
2019-03-19T01:26:25.209Z,0.00
2019-03-19T01:27:25.168Z,0.00
2019-03-19T01:28:25.158Z,0.00
2019-03-19T01:29:25.150Z,0.00
2019-03-19T01:30:25.152Z,0.00
2019-03-19T01:31:25.317Z,0.00
2019-03-19T01:32:25.139Z,0.00
2019-03-19T01:33:25.129Z,0.00
2019-03-19T01:34:25.120Z,0.00
2019-03-19T01:35:25.115Z,0.00
2019-03-19T01:36:25.147Z,0.00
2019-03-19T01:37:25.102Z,0.00
2019-03-19T01:38:25.096Z,0.00
2019-03-19T01:39:25.085Z,0.00
2019-03-19T01:40:25.106Z,0.00
2019-03-19T01:41:25.120Z,0.00
2019-03-19T01:42:25.065Z,0.00
2019-03-19T01:43:25.059Z,0.00
2019-03-19T01:44:25.054Z,0.00
2019-03-19T01:45:25.093Z,0.00
2019-03-19T01:46:25.043Z,0.00
2019-03-19T01:47:25.032Z,0.00
2019-03-19T01:48:25.027Z,0.00
2019-03-19T01:49:25.022Z,0.00
2019-03-19T01:50:25.049Z,0.00
2019-03-19T01:51:25.007Z,0.00
2019-03-19T01:52:24.999Z,0.00
2019-03-19T01:53:25.001Z,0.00
2019-03-19T01:54:24.984Z,0.00
2019-03-19T01:55:25.725Z,0.00
2019-03-19T01:56:24.975Z,0.00
2019-03-19T01:57:24.966Z,0.00
2019-03-19T01:58:24.995Z,0.00
2019-03-19T01:59:24.955Z,0.00
2019-03-19T02:00:25.514Z,0.00
2019-03-19T02:01:24.974Z,0.00
2019-03-19T02:02:24.934Z,0.00
2019-03-19T02:03:24.927Z,0.00
2019-03-19T02:04:24.935Z,0.00
2019-03-19T02:05:24.915Z,0.00
2019-03-19T02:06:24.945Z,0.00
2019-03-19T02:07:24.901Z,0.00
2019-03-19T02:08:24.899Z,0.00
2019-03-19T02:09:24.887Z,0.00
2019-03-19T02:10:24.882Z,0.00
2019-03-19T02:11:24.910Z,0.00
2019-03-19T02:12:24.867Z,0.00
2019-03-19T02:13:24.861Z,0.00
2019-03-19T02:14:24.853Z,0.00
2019-03-19T02:15:24.844Z,0.00
2019-03-19T02:16:24.873Z,0.00
2019-03-19T02:17:24.836Z,0.00
2019-03-19T02:18:24.825Z,0.00
2019-03-19T02:19:24.822Z,0.00
2019-03-19T02:20:25.006Z,0.00
2019-03-19T02:21:24.837Z,0.00
2019-03-19T02:22:24.800Z,0.00
2019-03-19T02:23:24.790Z,0.00
2019-03-19T02:24:24.782Z,0.00
2019-03-19T02:25:24.775Z,0.00
2019-03-19T02:26:24.807Z,0.00
2019-03-19T02:27:24.758Z,0.00
2019-03-19T02:28:24.752Z,0.00
2019-03-19T02:29:24.747Z,0.00
2019-03-19T02:30:24.744Z,0.00
2019-03-19T02:31:24.775Z,0.00
2019-03-19T02:32:24.731Z,0.00
2019-03-19T02:33:24.722Z,0.00
2019-03-19T02:34:24.717Z,0.00
2019-03-19T02:35:24.708Z,0.00
2019-03-19T02:36:24.748Z,0.00
2019-03-19T02:37:24.693Z,0.00
2019-03-19T02:38:24.687Z,0.00
2019-03-19T02:39:24.681Z,0.00
2019-03-19T02:40:24.676Z,0.00
2019-03-19T02:41:24.703Z,0.00
2019-03-19T02:42:24.664Z,0.00
2019-03-19T02:43:24.651Z,0.00
2019-03-19T02:44:24.656Z,0.00
2019-03-19T02:45:24.641Z,0.00
2019-03-19T02:46:24.664Z,0.00
2019-03-19T02:47:24.625Z,0.00
2019-03-19T02:48:24.620Z,0.00
2019-03-19T02:49:24.659Z,0.00
2019-03-19T02:50:24.604Z,0.00
2019-03-19T02:51:24.600Z,0.00
2019-03-19T02:52:24.624Z,0.00
2019-03-19T02:53:24.593Z,0.00
2019-03-19T02:54:24.578Z,0.00
2019-03-19T02:55:24.572Z,0.00
2019-03-19T02:56:32.462Z,0.00
2019-03-19T02:57:24.590Z,0.00
2019-03-19T02:58:24.545Z,0.00
2019-03-19T02:59:24.566Z,0.00
2019-03-19T03:00:24.545Z,0.00
2019-03-19T03:01:24.547Z,0.00
2019-03-19T03:02:24.570Z,0.00
2019-03-19T03:03:24.528Z,0.00
2019-03-19T03:04:24.521Z,0.00
2019-03-19T03:05:24.517Z,0.00
2019-03-19T03:06:24.506Z,0.00
2019-03-19T03:07:24.540Z,0.00
2019-03-19T03:08:24.494Z,0.00
2019-03-19T03:09:24.494Z,0.00
2019-03-19T03:10:24.479Z,0.00
2019-03-19T03:11:24.469Z,0.00
2019-03-19T03:12:24.496Z,0.00
2019-03-19T03:13:24.456Z,0.00
2019-03-19T03:14:24.456Z,0.00
2019-03-19T03:15:24.447Z,0.00
2019-03-19T03:16:24.435Z,0.00
2019-03-19T03:17:24.471Z,0.00
2019-03-19T03:18:24.424Z,0.00
2019-03-19T03:19:24.413Z,0.00
2019-03-19T03:20:24.407Z,0.00
2019-03-19T03:21:24.400Z,0.00
2019-03-19T03:22:24.443Z,0.00
2019-03-19T03:23:24.386Z,0.00
2019-03-19T03:24:24.381Z,0.00
2019-03-19T03:25:24.392Z,0.00
2019-03-19T03:26:24.374Z,0.00
2019-03-19T03:27:24.395Z,0.00
2019-03-19T03:28:24.365Z,0.00
2019-03-19T03:29:24.349Z,0.00
2019-03-19T03:30:24.526Z,0.00
2019-03-19T03:31:24.337Z,0.00
2019-03-19T03:32:24.357Z,0.00
2019-03-19T03:33:24.325Z,0.00
2019-03-19T03:34:24.305Z,0.00
2019-03-19T03:35:24.296Z,0.00
2019-03-19T03:36:24.292Z,0.00
2019-03-19T03:37:24.321Z,0.00
2019-03-19T03:38:24.285Z,0.00
2019-03-19T03:39:24.225Z,0.00
2019-03-19T03:40:24.222Z,0.00
2019-03-19T03:41:24.230Z,0.00
2019-03-19T03:42:24.239Z,0.00
2019-03-19T03:43:24.240Z,0.00
2019-03-19T03:44:24.227Z,0.00
2019-03-19T03:45:24.189Z,0.00
2019-03-19T03:46:24.211Z,0.00
2019-03-19T03:47:24.177Z,0.00
2019-03-19T03:48:24.167Z,0.00
2019-03-19T03:49:24.205Z,0.00
2019-03-19T03:50:24.154Z,0.00
2019-03-19T03:51:24.154Z,0.00
2019-03-19T03:52:24.137Z,0.00
2019-03-19T03:53:24.171Z,0.00
2019-03-19T03:54:24.168Z,0.00
2019-03-19T03:55:24.110Z,0.00
2019-03-19T03:56:24.122Z,0.00
2019-03-19T03:57:24.111Z,0.00
2019-03-19T03:58:24.094Z,0.00
2019-03-19T03:59:24.127Z,0.00
2019-03-19T04:00:24.141Z,0.00
2019-03-19T04:01:24.151Z,0.00
2019-03-19T04:02:24.065Z,0.00
2019-03-19T04:03:24.086Z,0.00
2019-03-19T04:04:24.055Z,0.00
2019-03-19T04:05:24.084Z,0.00
2019-03-19T04:06:24.042Z,0.00
2019-03-19T04:07:24.026Z,0.00
2019-03-19T04:08:24.063Z,0.00
2019-03-19T04:09:24.018Z,0.00
2019-03-19T04:10:24.050Z,0.00
2019-03-19T04:11:23.997Z,0.00
2019-03-19T04:12:24.022Z,0.00
2019-03-19T04:13:23.986Z,0.00
2019-03-19T04:14:24.015Z,0.00
2019-03-19T04:15:24.011Z,0.00
2019-03-19T04:16:23.959Z,0.00
2019-03-19T04:17:23.953Z,0.00
2019-03-19T04:18:23.954Z,0.00
2019-03-19T04:19:23.945Z,0.00
2019-03-19T04:20:23.981Z,0.00
2019-03-19T04:21:23.931Z,0.00
2019-03-19T04:22:23.924Z,0.00
2019-03-19T04:23:23.913Z,0.00
2019-03-19T04:24:23.909Z,0.00
2019-03-19T04:25:23.915Z,0.00
2019-03-19T04:26:23.931Z,0.00
2019-03-19T04:27:23.888Z,0.00
2019-03-19T04:28:23.874Z,0.00
2019-03-19T04:29:23.883Z,0.00
2019-03-19T04:30:23.889Z,0.00
2019-03-19T04:31:23.866Z,0.00
2019-03-19T04:32:23.885Z,0.00
2019-03-19T04:33:23.844Z,0.00
2019-03-19T04:34:23.838Z,0.00
2019-03-19T04:35:23.869Z,0.00
2019-03-19T04:36:23.827Z,0.00
2019-03-19T04:37:23.816Z,0.00
2019-03-19T04:38:23.814Z,0.00
2019-03-19T04:39:23.808Z,0.00
2019-03-19T04:40:23.832Z,0.00
2019-03-19T04:41:23.783Z,0.00
2019-03-19T04:42:23.786Z,0.00
2019-03-19T04:43:23.785Z,0.00
2019-03-19T04:44:23.775Z,0.00
2019-03-19T04:45:23.802Z,0.00
2019-03-19T04:46:23.757Z,0.00
2019-03-19T04:47:23.750Z,4.00
2019-03-19T04:48:23.737Z,0.00
2019-03-19T04:49:23.729Z,4.00
2019-03-19T04:50:23.751Z,4.00
2019-03-19T04:51:23.751Z,4.00
2019-03-19T04:52:23.707Z,4.00
2019-03-19T04:53:24.402Z,4.00
2019-03-19T04:54:23.699Z,8.00
2019-03-19T04:55:23.691Z,8.00
2019-03-19T04:56:23.724Z,12.00
2019-03-19T04:57:27.048Z,12.00
2019-03-19T04:58:23.668Z,16.00
2019-03-19T04:59:23.660Z,20.00
2019-03-19T05:00:23.693Z,20.00
2019-03-19T05:01:23.642Z,28.00
2019-03-19T05:02:23.630Z,32.00
2019-03-19T05:03:23.632Z,40.00
2019-03-19T05:04:23.620Z,44.00
2019-03-19T05:05:23.646Z,56.00
2019-03-19T05:06:23.652Z,64.00
2019-03-19T05:07:24.487Z,76.00
2019-03-19T05:08:23.590Z,92.00
2019-03-19T05:09:23.592Z,104.00
2019-03-19T05:10:23.604Z,124.00
2019-03-19T05:11:23.572Z,140.00
2019-03-19T05:12:23.604Z,160.00
2019-03-19T05:13:23.558Z,188.00
2019-03-19T05:14:23.550Z,212.00
2019-03-19T05:15:23.571Z,236.00
2019-03-19T05:16:23.537Z,264.00
2019-03-19T05:17:23.526Z,292.00
2019-03-19T05:18:23.555Z,328.00
2019-03-19T05:19:23.510Z,360.00
2019-03-19T05:20:23.538Z,400.00
2019-03-19T05:21:23.534Z,436.00
2019-03-19T05:22:23.490Z,472.00
2019-03-19T05:23:23.482Z,516.00
2019-03-19T05:24:23.472Z,552.00
2019-03-19T05:25:23.473Z,596.00
2019-03-19T05:26:23.507Z,640.00
2019-03-19T05:27:23.460Z,680.00
2019-03-19T05:28:23.443Z,732.00
2019-03-19T05:29:23.442Z,780.00
2019-03-19T05:30:23.433Z,804.00
2019-03-19T05:31:23.463Z,876.00
2019-03-19T05:32:23.462Z,956.00
2019-03-19T05:33:23.423Z,1004.00
2019-03-19T05:34:23.405Z,1024.00
2019-03-19T05:35:23.404Z,1048.00
2019-03-19T05:36:23.432Z,1104.00
2019-03-19T05:37:23.431Z,1184.00
2019-03-19T05:38:23.373Z,1244.00
2019-03-19T05:39:23.372Z,1320.00
2019-03-19T05:40:23.357Z,1452.00
2019-03-19T05:41:23.393Z,1544.00
2019-03-19T05:42:23.345Z,1660.00
2019-03-19T05:43:23.340Z,1804.00
2019-03-19T05:44:23.333Z,2000.00
2019-03-19T05:45:23.324Z,2288.00
2019-03-19T05:46:23.356Z,2548.00
2019-03-19T05:47:23.315Z,2724.00
2019-03-19T05:48:23.312Z,2936.00
2019-03-19T05:49:23.304Z,3180.00
2019-03-19T05:50:23.294Z,3216.00
2019-03-19T05:51:23.322Z,3276.00
2019-03-19T05:52:23.280Z,3376.00
2019-03-19T05:53:23.311Z,3348.00
2019-03-19T05:54:23.272Z,3096.00
2019-03-19T05:55:23.261Z,2928.00
2019-03-19T05:56:23.283Z,2996.00
2019-03-19T05:57:23.273Z,3100.00
2019-03-19T05:58:23.240Z,3212.00
2019-03-19T05:59:23.227Z,3340.00
2019-03-19T06:00:23.227Z,3588.00
2019-03-19T06:01:23.255Z,3796.00
2019-03-19T06:02:23.210Z,4084.00
2019-03-19T06:03:23.203Z,4436.00
2019-03-19T06:04:23.202Z,4540.00
2019-03-19T06:05:23.195Z,4240.00
2019-03-19T06:06:23.224Z,4000.00
2019-03-19T06:07:23.210Z,3852.00
2019-03-19T06:08:23.179Z,3632.00
2019-03-19T06:09:23.169Z,3520.00
2019-03-19T06:10:32.004Z,3512.00
2019-03-19T06:11:26.182Z,3516.00
2019-03-19T06:12:23.194Z,3568.00
2019-03-19T06:13:23.141Z,3644.00
2019-03-19T06:14:23.150Z,3788.00
2019-03-19T06:15:23.131Z,3864.00
2019-03-19T06:16:23.154Z,4020.00
2019-03-19T06:17:23.121Z,4124.00
2019-03-19T06:18:34.163Z,4204.00
2019-03-19T06:19:23.118Z,4320.00
2019-03-19T06:20:23.150Z,4424.00
2019-03-19T06:21:23.131Z,4456.00
2019-03-19T06:22:23.100Z,4572.00
2019-03-19T06:23:23.095Z,4964.00
2019-03-19T06:24:23.083Z,5476.00
2019-03-19T06:25:23.103Z,5772.00
2019-03-19T06:26:23.098Z,5772.00
2019-03-19T06:27:23.072Z,5592.00
2019-03-19T06:28:23.064Z,5480.00
2019-03-19T06:29:23.057Z,5420.00
2019-03-19T06:30:23.061Z,5460.00
2019-03-19T06:31:23.091Z,5576.00
2019-03-19T06:32:23.045Z,5784.00
2019-03-19T06:33:23.036Z,6064.00
2019-03-19T06:34:23.040Z,6308.00
2019-03-19T06:35:23.035Z,6620.00
2019-03-19T06:36:23.054Z,7028.00
2019-03-19T06:37:23.055Z,7660.00
2019-03-19T06:38:23.012Z,8540.00
2019-03-19T06:39:23.014Z,9592.00
2019-03-19T06:40:23.026Z,10716.00
2019-03-19T06:41:23.047Z,11604.00
2019-03-19T06:42:22.998Z,12052.00
2019-03-19T06:43:22.992Z,12224.00
2019-03-19T06:44:22.994Z,12120.00
2019-03-19T06:45:23.454Z,12036.00
2019-03-19T06:46:22.980Z,12104.00
2019-03-19T06:47:23.019Z,11948.00
2019-03-19T06:48:22.978Z,9924.00
2019-03-19T06:49:22.973Z,11356.00
2019-03-19T06:50:22.972Z,11524.00
2019-03-19T06:51:22.967Z,11680.00
2019-03-19T06:52:22.993Z,11492.00
2019-03-19T06:53:22.997Z,11564.00
2019-03-19T06:54:22.965Z,12820.00
2019-03-19T06:55:22.960Z,13108.00
2019-03-19T06:56:22.951Z,12736.00
2019-03-19T06:57:22.978Z,11720.00
2019-03-19T06:58:22.951Z,11340.00
2019-03-19T06:59:22.983Z,10456.00
2019-03-19T07:00:22.941Z,9856.00
2019-03-19T07:01:22.943Z,9504.00
2019-03-19T07:02:22.975Z,9588.00
2019-03-19T07:03:22.930Z,10320.00
2019-03-19T07:04:22.930Z,11356.00
2019-03-19T07:05:22.936Z,12060.00
2019-03-19T07:06:24.811Z,11916.00
2019-03-19T07:07:22.953Z,11716.00
2019-03-19T07:08:22.913Z,11896.00
2019-03-19T07:09:22.916Z,12228.00
2019-03-19T07:10:22.953Z,12148.00
2019-03-19T07:11:22.914Z,12216.00
2019-03-19T07:12:22.940Z,12664.00
2019-03-19T07:13:22.902Z,13032.00
2019-03-19T07:14:22.898Z,13616.00
2019-03-19T07:15:22.894Z,14164.00
2019-03-19T07:16:22.889Z,14280.00
2019-03-19T07:17:22.918Z,14280.00
2019-03-19T07:18:22.925Z,13596.00
2019-03-19T07:19:22.880Z,14044.00
2019-03-19T07:20:22.883Z,13796.00
2019-03-19T07:21:22.877Z,12224.00
2019-03-19T07:22:22.919Z,13148.00
2019-03-19T07:23:22.877Z,14632.00
2019-03-19T07:24:22.870Z,13736.00
2019-03-19T07:25:22.866Z,16496.00
2019-03-19T07:26:22.865Z,16864.00
2019-03-19T07:27:22.905Z,16272.00
2019-03-19T07:28:22.869Z,15332.00
2019-03-19T07:29:22.862Z,17096.00
2019-03-19T07:30:22.856Z,15908.00
2019-03-19T07:31:30.631Z,15300.00
2019-03-19T07:32:22.885Z,15044.00
2019-03-19T07:33:22.849Z,14824.00
2019-03-19T07:34:22.853Z,14436.00
2019-03-19T07:35:22.852Z,14308.00
2019-03-19T07:36:22.844Z,14480.00
2019-03-19T07:37:24.144Z,14752.00
2019-03-19T07:38:23.536Z,15160.00
2019-03-19T07:39:22.841Z,15528.00
2019-03-19T07:40:22.832Z,15928.00
2019-03-19T07:41:22.837Z,14956.00
2019-03-19T07:42:22.906Z,14280.00
2019-03-19T07:43:23.760Z,15220.00
2019-03-19T07:44:23.968Z,14220.00
2019-03-19T07:45:23.642Z,12908.00
2019-03-19T07:46:22.828Z,13384.00
2019-03-19T07:47:22.963Z,13908.00
2019-03-19T07:48:22.825Z,15024.00
2019-03-19T07:49:22.892Z,15548.00
2019-03-19T07:50:22.824Z,16840.00
2019-03-19T07:51:22.822Z,18080.00
2019-03-19T07:52:22.857Z,17352.00
2019-03-19T07:53:23.793Z,17308.00
2019-03-19T07:54:22.823Z,18112.00
2019-03-19T07:55:22.816Z,16316.00
2019-03-19T07:56:22.811Z,14728.00
2019-03-19T07:57:23.892Z,13780.00
2019-03-19T07:58:36.129Z,13616.00
2019-03-19T07:59:22.799Z,15948.00
2019-03-19T08:00:22.803Z,19008.00
2019-03-19T08:01:24.588Z,18240.00
2019-03-19T08:02:22.836Z,17592.00
2019-03-19T08:03:22.834Z,17416.00
2019-03-19T08:04:22.798Z,17376.00
2019-03-19T08:05:32.600Z,17932.00
2019-03-19T08:06:22.795Z,17044.00
2019-03-19T08:07:22.828Z,17448.00
2019-03-19T08:08:22.786Z,17172.00
2019-03-19T08:09:22.803Z,18208.00
2019-03-19T08:10:22.789Z,15748.00
2019-03-19T08:11:22.820Z,11392.00
2019-03-19T08:12:22.780Z,10656.00
2019-03-19T08:13:22.815Z,11844.00
2019-03-19T08:14:22.774Z,13516.00
2019-03-19T08:15:22.778Z,14552.00
2019-03-19T08:16:27.400Z,14048.00
2019-03-19T08:17:22.815Z,11756.00
2019-03-19T08:18:22.770Z,10740.00
2019-03-19T08:19:22.772Z,9448.00
2019-03-19T08:20:22.805Z,10768.00
2019-03-19T08:21:22.768Z,14888.00
2019-03-19T08:22:22.765Z,12888.00
2019-03-19T08:23:22.806Z,12464.00
2019-03-19T08:24:22.773Z,13180.00
2019-03-19T08:25:22.769Z,22336.00
2019-03-19T08:26:22.769Z,23360.00
2019-03-19T08:27:22.767Z,24768.00
2019-03-19T08:28:22.802Z,18144.00
2019-03-19T08:29:22.761Z,16936.00
2019-03-19T08:30:24.464Z,17212.00
2019-03-19T08:31:22.771Z,19424.00
2019-03-19T08:32:22.770Z,24224.00
2019-03-19T08:33:22.813Z,26272.00
2019-03-19T08:34:22.769Z,22848.00
2019-03-19T08:35:22.791Z,24416.00
2019-03-19T08:36:22.775Z,29408.00
2019-03-19T08:37:22.771Z,29600.00
2019-03-19T08:38:22.806Z,26464.00
2019-03-19T08:39:22.775Z,30208.00
2019-03-19T08:40:22.781Z,26560.00
2019-03-19T08:41:22.773Z,25984.00
2019-03-19T08:42:22.776Z,24640.00
2019-03-19T08:43:22.808Z,24448.00
2019-03-19T08:44:27.777Z,25856.00
2019-03-19T08:45:22.781Z,26688.00
2019-03-19T08:46:22.788Z,34496.00
2019-03-19T08:47:22.782Z,34560.00
2019-03-19T08:48:22.804Z,32768.00
2019-03-19T08:49:22.788Z,28672.00
2019-03-19T08:50:22.827Z,25376.00
2019-03-19T08:51:22.795Z,30304.00
2019-03-19T08:52:22.788Z,21856.00
2019-03-19T08:53:25.907Z,19200.00
2019-03-19T08:54:24.904Z,18656.00
2019-03-19T08:55:22.797Z,26720.00
2019-03-19T08:56:22.833Z,17084.00
2019-03-19T08:57:22.808Z,14388.00
2019-03-19T08:58:23.595Z,11480.00
2019-03-19T08:59:22.805Z,11200.00
2019-03-19T09:00:22.809Z,13224.00
2019-03-19T09:01:24.901Z,14552.00
2019-03-19T09:02:22.850Z,15876.00
2019-03-19T09:03:22.849Z,19136.00
2019-03-19T09:04:22.803Z,25280.00
2019-03-19T09:05:22.853Z,23360.00
2019-03-19T09:06:22.817Z,18752.00
2019-03-19T09:07:22.826Z,16508.00
2019-03-19T09:08:22.848Z,15964.00
2019-03-19T09:09:22.813Z,16892.00
2019-03-19T09:10:22.888Z,18944.00
2019-03-19T09:11:22.816Z,22912.00
2019-03-19T09:12:22.818Z,25536.00
2019-03-19T09:13:22.863Z,23936.00
2019-03-19T09:14:22.824Z,26560.00
2019-03-19T09:15:22.820Z,15828.00
2019-03-19T09:16:22.826Z,15740.00
2019-03-19T09:17:22.819Z,18688.00
2019-03-19T09:18:23.406Z,18336.00
2019-03-19T09:19:22.822Z,17292.00
2019-03-19T09:20:22.829Z,20192.00
2019-03-19T09:21:22.824Z,22688.00
2019-03-19T09:22:22.890Z,26624.00
2019-03-19T09:23:22.870Z,28544.00
2019-03-19T09:24:22.831Z,28224.00
2019-03-19T09:25:22.832Z,29312.00
2019-03-19T09:26:22.827Z,31456.00
2019-03-19T09:27:22.827Z,32416.00
2019-03-19T09:28:22.853Z,31232.00
2019-03-19T09:29:22.874Z,28704.00
2019-03-19T09:30:22.827Z,26304.00
2019-03-19T09:31:22.827Z,24192.00
2019-03-19T09:32:22.827Z,23136.00
2019-03-19T09:33:22.829Z,22688.00
2019-03-19T09:34:22.868Z,23136.00
2019-03-19T09:35:22.826Z,23328.00
2019-03-19T09:36:22.828Z,23744.00
2019-03-19T09:37:22.832Z,23616.00
2019-03-19T09:38:22.827Z,22688.00
2019-03-19T09:39:22.876Z,22336.00
2019-03-19T09:40:22.834Z,22176.00
2019-03-19T09:41:22.826Z,21408.00
2019-03-19T09:42:22.826Z,18752.00
2019-03-19T09:43:22.823Z,16016.00
2019-03-19T09:44:22.874Z,15232.00
2019-03-19T09:45:22.834Z,16056.00
2019-03-19T09:46:22.822Z,14916.00
2019-03-19T09:47:22.834Z,13968.00
2019-03-19T09:48:22.831Z,13096.00
2019-03-19T09:49:22.858Z,12736.00
2019-03-19T09:50:22.859Z,12848.00
2019-03-19T09:51:22.819Z,13628.00
2019-03-19T09:52:22.809Z,14776.00
2019-03-19T09:53:22.818Z,16560.00
2019-03-19T09:54:22.851Z,21536.00
2019-03-19T09:55:22.851Z,33088.00
2019-03-19T09:56:22.815Z,38848.00
2019-03-19T09:57:22.811Z,43872.00
2019-03-19T09:58:22.806Z,46176.00
2019-03-19T09:59:27.108Z,46144.00
2019-03-19T10:00:22.890Z,44160.00
2019-03-19T10:01:22.810Z,39008.00
2019-03-19T10:02:23.846Z,28992.00
2019-03-19T10:03:22.816Z,29472.00
2019-03-19T10:04:22.847Z,32160.00
2019-03-19T10:05:22.859Z,34720.00
2019-03-19T10:06:22.815Z,32512.00
2019-03-19T10:07:22.822Z,27104.00
2019-03-19T10:08:22.827Z,24960.00
2019-03-19T10:09:22.868Z,24992.00
2019-03-19T10:10:22.960Z,26784.00
2019-03-19T10:11:22.874Z,28320.00
2019-03-19T10:12:22.842Z,28032.00
2019-03-19T10:13:22.835Z,27712.00
2019-03-19T10:14:22.878Z,29312.00
2019-03-19T10:15:22.846Z,31872.00
2019-03-19T10:16:22.849Z,59072.00
2019-03-19T10:17:22.847Z,28736.00
2019-03-19T10:18:22.850Z,27680.00
2019-03-19T10:19:22.895Z,27200.00
2019-03-19T10:20:22.859Z,28288.00
2019-03-19T10:21:22.858Z,27744.00
2019-03-19T10:22:22.857Z,28384.00
2019-03-19T10:23:22.869Z,29504.00
2019-03-19T10:24:22.894Z,30240.00
2019-03-19T10:25:22.904Z,30720.00
2019-03-19T10:26:22.870Z,30592.00
2019-03-19T10:27:22.869Z,30720.00
2019-03-19T10:28:22.865Z,33952.00
2019-03-19T10:29:22.897Z,29120.00
2019-03-19T10:30:22.876Z,28416.00
2019-03-19T10:31:22.910Z,27648.00
2019-03-19T10:32:22.874Z,27360.00
2019-03-19T10:33:22.872Z,27616.00
2019-03-19T10:34:22.915Z,28736.00
2019-03-19T10:35:22.878Z,30784.00
2019-03-19T10:36:22.881Z,109248.00
2019-03-19T10:37:22.881Z,64736.00
2019-03-19T10:38:22.891Z,30720.00
2019-03-19T10:39:22.919Z,25952.00
2019-03-19T10:40:22.883Z,23552.00
2019-03-19T10:41:22.872Z,23104.00
2019-03-19T10:42:22.888Z,22976.00
2019-03-19T10:43:22.881Z,23584.00
2019-03-19T10:44:22.912Z,23328.00
2019-03-19T10:45:22.934Z,21888.00
2019-03-19T10:46:22.895Z,20512.00
2019-03-19T10:47:22.889Z,19232.00
2019-03-19T10:48:22.890Z,18112.00
2019-03-19T10:49:22.920Z,17672.00
2019-03-19T10:50:22.888Z,18432.00
2019-03-19T10:51:22.940Z,18848.00
2019-03-19T10:52:22.888Z,19392.00
2019-03-19T10:53:22.893Z,19776.00
2019-03-19T10:54:22.889Z,20032.00
2019-03-19T10:55:23.178Z,19936.00
2019-03-19T10:56:22.899Z,20512.00
2019-03-19T10:57:22.904Z,20864.00
2019-03-19T10:58:22.895Z,21344.00
2019-03-19T10:59:22.893Z,23872.00
2019-03-19T11:00:22.931Z,20192.00
2019-03-19T11:01:22.891Z,19136.00
2019-03-19T11:02:22.888Z,21152.00
2019-03-19T11:03:22.892Z,45312.00
2019-03-19T11:04:22.898Z,101632.00
2019-03-19T11:05:22.892Z,109472.00
2019-03-19T11:06:22.927Z,113856.00
2019-03-19T11:07:22.892Z,112128.00
2019-03-19T11:08:22.892Z,108384.00
2019-03-19T11:09:22.895Z,43520.00
2019-03-19T11:10:22.947Z,37408.00
2019-03-19T11:11:22.908Z,31040.00
2019-03-19T11:12:22.901Z,44576.00
2019-03-19T11:13:22.909Z,34208.00
2019-03-19T11:14:22.915Z,50528.00
2019-03-19T11:15:22.958Z,71680.00
2019-03-19T11:16:22.931Z,112672.00
2019-03-19T11:17:22.931Z,111488.00
2019-03-19T11:18:22.932Z,101408.00
2019-03-19T11:19:22.929Z,108768.00
2019-03-19T11:20:22.976Z,119776.00
2019-03-19T11:21:22.944Z,110304.00
2019-03-19T11:22:22.956Z,41984.00
2019-03-19T11:23:22.963Z,33184.00
2019-03-19T11:24:22.976Z,21824.00
2019-03-19T11:25:23.012Z,20672.00
2019-03-19T11:26:23.016Z,21312.00
2019-03-19T11:27:22.995Z,22624.00
2019-03-19T11:28:22.992Z,24320.00
2019-03-19T11:29:23.007Z,26080.00
2019-03-19T11:30:23.048Z,28192.00
2019-03-19T11:31:23.016Z,29504.00
2019-03-19T11:32:23.009Z,29120.00
2019-03-19T11:33:23.019Z,27712.00
2019-03-19T11:34:23.016Z,26464.00
2019-03-19T11:35:23.065Z,25728.00
2019-03-19T11:36:23.029Z,24704.00
2019-03-19T11:37:23.034Z,23424.00
2019-03-19T11:38:23.034Z,21984.00
2019-03-19T11:39:23.040Z,20384.00
2019-03-19T11:40:25.546Z,19040.00
2019-03-19T11:41:23.039Z,17760.00
2019-03-19T11:42:23.043Z,16684.00
2019-03-19T11:43:23.044Z,16436.00
2019-03-19T11:44:23.046Z,17216.00
2019-03-19T11:45:23.087Z,18848.00
2019-03-19T11:46:23.043Z,21152.00
2019-03-19T11:47:23.046Z,23552.00
2019-03-19T11:48:23.046Z,26336.00
2019-03-19T11:49:23.051Z,29312.00
2019-03-19T11:50:23.089Z,31808.00
2019-03-19T11:51:23.049Z,34368.00
2019-03-19T11:52:23.052Z,37344.00
2019-03-19T11:53:23.046Z,45856.00
2019-03-19T11:54:23.054Z,39104.00
2019-03-19T11:55:23.086Z,39840.00
2019-03-19T11:56:23.047Z,51808.00
2019-03-19T11:57:23.046Z,39744.00
2019-03-19T11:58:23.050Z,40992.00
2019-03-19T11:59:23.111Z,53536.00
2019-03-19T12:00:23.079Z,51616.00
2019-03-19T12:01:23.091Z,76256.00
2019-03-19T12:02:26.203Z,94656.00
2019-03-19T12:03:23.054Z,121408.00
2019-03-19T12:04:23.055Z,72576.00
2019-03-19T12:05:23.100Z,57472.00
2019-03-19T12:06:23.064Z,43840.00
2019-03-19T12:07:23.064Z,37152.00
2019-03-19T12:08:23.062Z,33248.00
2019-03-19T12:09:23.129Z,27328.00
2019-03-19T12:10:23.130Z,23424.00
2019-03-19T12:11:23.079Z,20736.00
2019-03-19T12:12:23.077Z,19264.00
2019-03-19T12:13:23.093Z,18432.00
2019-03-19T12:14:23.093Z,17312.00
2019-03-19T12:15:23.095Z,15804.00
2019-03-19T12:16:23.141Z,14556.00
2019-03-19T12:17:23.109Z,13492.00
2019-03-19T12:18:23.106Z,12480.00
2019-03-19T12:19:23.099Z,11508.00
2019-03-19T12:20:23.109Z,10632.00
2019-03-19T12:21:23.142Z,9924.00
2019-03-19T12:22:23.173Z,9296.00
2019-03-19T12:23:23.157Z,8856.00